Time;durP1;ratioP1;P1;durP2;ratioP2;P2;SDS_P1;SDS_P2;PMS_P1;PMS_P2;Temp;Humidity;BMP_temperature;BMP_pressure;BME280_temperature;BME280_humidity;BME280_pressure;Samples;Min_cycle;Max_cycle;Signal;HPM_P1;HPM_P2
2023/06/28 00:00:01;;;;;;;3.00;2.20;;;;;;;14.63;70.72;100139.35;106342;1254;106335;-83
2023/06/28 00:03:10;;;;;;;4.70;1.70;;;;;;;14.61;70.98;100139.22;106316;1256;96689;-85
2023/06/28 00:05:55;;;;;;;6.00;1.80;;;;;;;14.53;71.27;100139.96;106280;1251;96489;-84
2023/06/28 00:08:41;;;;;;;2.10;1.50;;;;;;;14.46;71.86;100138.92;106404;1256;99990;-85
2023/06/28 00:11:28;;;;;;;1.90;1.50;;;;;;;14.40;72.09;100142.08;106407;1254;99097;-85
2023/06/28 00:14:13;;;;;;;5.50;2.40;;;;;;;14.35;72.65;100145.70;106262;1251;97705;-85
2023/06/28 00:16:59;;;;;;;4.70;2.10;;;;;;;14.34;72.91;100147.13;106288;1251;96770;-85
2023/06/28 00:19:49;;;;;;;5.70;2.00;;;;;;;14.34;73.05;100152.14;106172;1251;97029;-84
2023/06/28 00:22:35;;;;;;;3.80;2.00;;;;;;;14.31;73.49;100147.45;106318;1253;99937;-85
2023/06/28 00:25:20;;;;;;;3.90;2.20;;;;;;;14.28;74.10;100148.36;106198;1251;99118;-85
2023/06/28 00:28:06;;;;;;;6.50;2.50;;;;;;;14.24;74.57;100150.71;106351;1254;97794;-84
2023/06/28 00:30:54;;;;;;;5.70;3.00;;;;;;;14.21;74.91;100148.66;106365;1251;96491;-85
2023/06/28 00:33:40;;;;;;;7.20;2.70;;;;;;;14.19;75.11;100148.73;106291;1254;97823;-84
2023/06/28 00:36:26;;;;;;;5.40;2.20;;;;;;;14.18;75.56;100146.05;106392;1257;99947;-84
2023/06/28 00:39:12;;;;;;;3.20;2.50;;;;;;;14.16;75.63;100146.72;106321;1251;99094;-85
2023/06/28 00:41:58;;;;;;;8.30;3.00;;;;;;;14.16;76.10;100151.73;106427;1253;98998;-84
2023/06/28 00:44:44;;;;;;;4.70;2.50;;;;;;;14.16;76.29;100154.55;106306;1254;96651;-85
2023/06/28 00:47:30;;;;;;;6.70;3.10;;;;;;;14.16;76.34;100156.86;106239;1251;97101;-85
2023/06/28 00:50:16;;;;;;;7.60;3.20;;;;;;;14.18;76.62;100158.48;106301;1254;99992;-84
2023/06/28 00:53:02;;;;;;;4.30;2.50;;;;;;;14.15;76.72;100157.20;106104;1251;99106;-84
2023/06/28 00:55:48;;;;;;;3.20;2.20;;;;;;;14.11;76.82;100155.72;106407;1254;97721;-84
2023/06/28 00:58:34;;;;;;;5.30;2.40;;;;;;;14.09;77.01;100157.43;106345;1254;96623;-84
2023/06/28 01:01:20;;;;;;;4.70;2.40;;;;;;;14.06;77.15;100155.55;106192;1255;96702;-83
2023/06/28 01:04:06;;;;;;;8.00;2.40;;;;;;;14.04;77.23;100149.56;106471;1256;99972;-84
2023/06/28 01:06:54;;;;;;;4.00;2.10;;;;;;;14.00;77.53;100153.58;106282;1254;100048;-83
2023/06/28 01:09:40;;;;;;;4.30;2.30;;;;;;;13.95;77.60;100149.34;106226;1251;99020;-84
2023/06/28 01:12:29;;;;;;;5.40;2.40;;;;;;;13.91;77.94;100147.97;106341;1256;96500;-83
2023/06/28 01:15:16;;;;;;;3.40;2.50;;;;;;;13.88;78.10;100148.56;106176;1251;97022;-83
2023/06/28 01:18:02;;;;;;;5.40;2.60;;;;;;;13.85;78.33;100154.71;106424;1251;99986;-85
2023/06/28 01:20:50;;;;;;;3.50;2.60;;;;;;;13.82;78.53;100152.91;106243;1256;107710;-84
2023/06/28 01:23:35;;;;;;;5.30;2.50;;;;;;;13.80;78.62;100157.40;106458;1250;97700;-84
2023/06/28 01:26:22;;;;;;;4.00;2.50;;;;;;;13.80;78.77;100155.41;106458;1251;96648;-83
2023/06/28 01:29:08;;;;;;;7.40;2.30;;;;;;;13.81;78.95;100158.14;106211;1256;97029;-83
2023/06/28 01:31:55;;;;;;;6.60;2.70;;;;;;;13.79;78.89;100153.39;106388;1250;101374;-84
2023/06/28 01:34:42;;;;;;;7.00;3.00;;;;;;;13.76;79.14;100155.83;106182;1251;99037;-85
2023/06/28 01:37:29;;;;;;;6.60;3.20;;;;;;;13.74;79.29;100158.06;106432;1250;98348;-83
2023/06/28 01:40:16;;;;;;;5.30;2.80;;;;;;;13.73;79.46;100158.61;106303;1257;96536;-83
2023/06/28 01:43:06;;;;;;;6.40;2.90;;;;;;;13.70;79.58;100156.14;106424;1254;96745;-84
2023/06/28 01:45:52;;;;;;;6.80;2.60;;;;;;;13.67;79.61;100151.40;106331;1254;101244;-85
2023/06/28 01:48:38;;;;;;;7.30;2.90;;;;;;;13.66;79.91;100150.73;106347;1251;99444;-84
2023/06/28 01:51:24;;;;;;;6.00;2.70;;;;;;;13.66;80.01;100144.42;106338;1254;106712;-84
2023/06/28 01:54:10;;;;;;;5.90;3.20;;;;;;;13.62;80.15;100143.70;106397;1254;96645;-84
2023/06/28 01:56:56;;;;;;;7.10;2.60;;;;;;;13.56;80.34;100144.49;106225;1251;97071;-84
2023/06/28 01:59:41;;;;;;;3.00;2.50;;;;;;;13.51;80.61;100144.98;106400;1251;99969;-84
2023/06/28 02:02:27;;;;;;;6.10;2.80;;;;;;;13.47;80.69;100144.74;106381;1251;99328;-83
2023/06/28 02:05:13;;;;;;;7.50;3.00;;;;;;;13.48;80.87;100139.29;106173;1251;97733;-84
2023/06/28 02:08:02;;;;;;;4.90;3.10;;;;;;;13.48;80.82;100137.66;106258;1251;96527;-84
2023/06/28 02:10:48;;;;;;;7.30;3.00;;;;;;;13.48;81.06;100136.92;106361;1256;95871;-84
2023/06/28 02:13:34;;;;;;;5.30;3.00;;;;;;;13.48;80.97;100136.10;106398;1251;100150;-84
2023/06/28 02:16:22;;;;;;;4.40;2.90;;;;;;;13.47;81.26;100133.25;106373;1254;99044;-83
2023/06/28 02:19:12;;;;;;;3.30;2.70;;;;;;;13.45;81.19;100130.19;106292;1254;97776;-83
2023/06/28 02:21:58;;;;;;;8.50;3.60;;;;;;;13.45;81.22;100131.14;106193;1251;96600;-85
2023/06/28 02:24:44;;;;;;;5.10;3.60;;;;;;;13.41;81.55;100131.17;106413;1251;96529;-84
2023/06/28 02:27:31;;;;;;;5.30;3.00;;;;;;;13.36;81.56;100130.79;106194;1251;99914;-84
2023/06/28 02:30:18;;;;;;;6.70;3.60;;;;;;;13.34;81.95;100129.10;106284;1251;99157;-84
2023/06/28 02:33:05;;;;;;;5.00;3.00;;;;;;;13.34;82.16;100133.45;106461;1250;97789;-85
2023/06/28 02:35:51;;;;;;;3.50;3.10;;;;;;;13.31;82.24;100129.33;106371;1251;96593;-85
2023/06/28 02:38:36;;;;;;;4.50;3.40;;;;;;;13.27;82.62;100130.35;106529;1251;97010;-85
2023/06/28 02:41:24;;;;;;;4.40;3.30;;;;;;;13.25;82.83;100127.21;106338;1251;101489;-85
2023/06/28 02:44:10;;;;;;;5.70;3.20;;;;;;;13.26;82.85;100123.06;106287;1251;99834;-84
2023/06/28 02:46:56;;;;;;;5.70;3.40;;;;;;;13.25;83.01;100119.59;106331;1257;99481;-82
2023/06/28 02:49:41;;;;;;;6.00;3.30;;;;;;;13.26;83.22;100125.38;106396;1256;97811;-84
2023/06/28 02:52:27;;;;;;;4.60;3.20;;;;;;;13.27;83.50;100132.82;106396;1251;97037;-85
2023/06/28 02:55:14;;;;;;;4.70;3.50;;;;;;;13.22;83.81;100134.55;106394;1251;101420;-83
2023/06/28 02:58:00;;;;;;;6.90;3.80;;;;;;;13.19;83.93;100134.02;106377;1251;100357;-85
2023/06/28 03:00:46;;;;;;;5.10;3.50;;;;;;;13.16;84.41;100134.00;106603;1255;97649;-86
2023/06/28 03:03:33;;;;;;;5.90;3.50;;;;;;;13.16;85.01;100138.73;106334;1256;96706;-86
2023/06/28 03:06:20;;;;;;;5.00;3.40;;;;;;;13.16;85.08;100142.02;106354;1256;97112;-84
2023/06/28 03:09:06;;;;;;;4.50;3.00;;;;;;;13.18;85.25;100148.14;106559;1251;99989;-86
2023/06/28 03:11:51;;;;;;;6.10;3.70;;;;;;;13.15;85.43;100138.31;106516;1255;100322;-86
2023/06/28 03:14:37;;;;;;;6.20;3.40;;;;;;;13.14;85.69;100132.80;106373;1254;98461;-86
2023/06/28 03:17:24;;;;;;;5.80;4.10;;;;;;;13.18;85.77;100126.80;106309;1251;96569;-86
2023/06/28 03:20:10;;;;;;;4.10;3.40;;;;;;;13.19;85.83;100124.10;106425;1251;97029;-86
2023/06/28 03:22:57;;;;;;;4.30;3.50;;;;;;;13.19;86.13;100120.05;106565;1256;101288;-86
2023/06/28 03:25:43;;;;;;;7.20;4.10;;;;;;;13.22;86.32;100123.54;106287;1259;99113;-87
2023/06/28 03:28:30;;;;;;;5.90;3.30;;;;;;;13.27;86.35;100120.33;106387;1256;97900;-85
2023/06/28 03:31:16;;;;;;;3.30;3.00;;;;;;;13.30;86.35;100122.49;106376;1251;97068;-86
2023/06/28 03:34:02;;;;;;;6.10;3.60;;;;;;;13.31;86.49;100121.87;106482;1256;96602;-86
2023/06/28 03:36:48;;;;;;;6.40;3.70;;;;;;;13.32;86.61;100126.92;106548;1253;101299;-86
2023/06/28 03:39:34;;;;;;;4.50;3.30;;;;;;;13.33;86.72;100126.02;106482;1251;99097;-86
2023/06/28 03:42:19;;;;;;;4.70;3.50;;;;;;;13.37;86.84;100117.98;106359;1257;97713;-85
2023/06/28 03:45:06;;;;;;;5.50;3.20;;;;;;;13.43;86.78;100119.85;106473;1251;96686;-87
2023/06/28 03:47:53;;;;;;;6.90;3.50;;;;;;;13.48;86.83;100121.31;106381;1251;97894;-86
2023/06/28 03:50:39;;;;;;;4.40;3.40;;;;;;;13.55;87.07;100118.16;106339;1250;100767;-86
2023/06/28 03:53:25;;;;;;;4.10;2.80;;;;;;;13.59;86.83;100115.95;106417;1250;99358;-85
2023/06/28 03:56:10;;;;;;;5.10;3.10;;;;;;;13.63;86.98;100117.52;106448;1251;97761;-85
2023/06/28 03:58:56;;;;;;;4.50;3.00;;;;;;;13.68;86.87;100122.75;106433;1251;96607;-86
2023/06/28 04:01:41;;;;;;;5.70;2.80;;;;;;;13.72;87.11;100122.39;106423;1254;97313;-87
2023/06/28 04:04:27;;;;;;;6.20;3.30;;;;;;;13.77;87.15;100128.98;106487;1254;101900;-87
2023/06/28 04:07:13;;;;;;;10.20;3.00;;;;;;;13.82;87.32;100126.54;106439;1254;99068;-87
2023/06/28 04:09:59;;;;;;;10.50;2.70;;;;;;;13.85;86.96;100128.55;106328;1259;97661;-88
2023/06/28 04:12:45;;;;;;;5.30;3.40;;;;;;;13.91;87.19;100130.35;106455;1251;96607;-87
2023/06/28 04:15:30;;;;;;;3.40;2.80;;;;;;;13.95;86.94;100130.33;106630;1256;96948;-87
2023/06/28 04:18:16;;;;;;;5.80;2.60;;;;;;;13.97;86.95;100129.02;106584;1254;101386;-87
2023/06/28 04:21:02;;;;;;;5.20;2.90;;;;;;;14.02;87.04;100136.14;106494;1251;99103;-85
2023/06/28 04:23:48;;;;;;;5.70;3.40;;;;;;;14.06;86.90;100132.67;106591;1251;97710;-85
2023/06/28 04:26:33;;;;;;;5.10;2.80;;;;;;;14.11;86.98;100135.61;106437;1251;97681;-86
2023/06/28 04:29:19;;;;;;;6.20;3.10;;;;;;;14.13;86.72;100136.02;106515;1251;97986;-85
2023/06/28 04:32:23;;;;;;;3.60;2.80;;;;;;;14.16;86.89;100134.34;106487;1256;100783;-86
2023/06/28 04:35:09;;;;;;;3.30;2.50;;;;;;;14.26;87.11;100140.98;106589;1251;99072;-86
2023/06/28 04:37:56;;;;;;;3.40;2.80;;;;;;;14.33;86.87;100138.06;106509;1251;98208;-87
2023/06/28 04:40:42;;;;;;;8.60;2.80;;;;;;;14.36;86.77;100138.83;106454;1259;96566;-87
2023/06/28 04:43:28;;;;;;;4.10;2.30;;;;;;;14.40;86.64;100140.64;106486;1257;96615;-87
2023/06/28 04:46:14;;;;;;;4.00;2.60;;;;;;;14.48;86.81;100142.92;106404;1256;99950;-86
2023/06/28 04:49:00;;;;;;;5.70;2.80;;;;;;;14.53;86.63;100144.27;106442;1251;99908;-86
2023/06/28 04:51:46;;;;;;;5.00;3.30;;;;;;;14.60;86.44;100139.14;106515;1251;97473;-86
2023/06/28 04:54:32;;;;;;;4.90;2.80;;;;;;;14.65;86.20;100139.66;106631;1251;96610;-86
2023/06/28 04:57:20;;;;;;;5.30;3.10;;;;;;;14.71;85.97;100142.67;106464;1251;97910;-86
2023/06/28 05:00:09;;;;;;;6.90;4.20;;;;;;;14.73;85.65;100142.11;106422;1251;99992;-85
2023/06/28 05:02:56;;;;;;;11.70;4.60;;;;;;;14.80;85.88;100140.91;106355;1259;99076;-85
2023/06/28 05:05:42;;;;;;;4.60;2.90;;;;;;;14.86;85.61;100141.55;106586;1251;97793;-86
2023/06/28 05:08:28;;;;;;;12.00;5.20;;;;;;;14.90;85.36;100144.56;106684;1251;97039;-87
2023/06/28 05:11:14;;;;;;;4.90;3.60;;;;;;;14.95;85.38;100146.55;106396;1253;97064;-86
2023/06/28 05:14:00;;;;;;;4.30;3.40;;;;;;;15.05;85.23;100145.87;106346;1250;100008;-87
2023/06/28 05:16:46;;;;;;;9.80;5.90;;;;;;;15.15;85.54;100144.70;106360;1259;100378;-86
2023/06/28 05:19:32;;;;;;;9.40;5.20;;;;;;;15.26;85.30;100142.06;106486;1251;97643;-86
2023/06/28 05:22:21;;;;;;;6.60;2.80;;;;;;;15.39;85.32;100138.12;106507;1251;96488;-85
2023/06/28 05:25:07;;;;;;;6.10;3.30;;;;;;;15.48;84.60;100139.35;106623;1251;95966;-84
2023/06/28 05:27:53;;;;;;;4.90;3.20;;;;;;;15.52;84.09;100141.24;106460;1257;100926;-84
2023/06/28 05:30:40;;;;;;;8.40;3.10;;;;;;;15.56;83.85;100143.84;106422;1251;108839;-86
2023/06/28 05:33:25;;;;;;;5.10;2.80;;;;;;;15.58;83.86;100140.05;106418;1251;99050;-85
2023/06/28 05:36:11;;;;;;;4.10;2.60;;;;;;;15.66;84.12;100138.29;106433;1259;96594;-86
2023/06/28 05:38:56;;;;;;;3.90;2.20;;;;;;;15.80;83.98;100136.54;106431;1258;97112;-86
2023/06/28 05:41:42;;;;;;;4.10;2.10;;;;;;;15.90;83.46;100129.82;106455;1259;100780;-85
2023/06/28 05:44:28;;;;;;;3.80;2.40;;;;;;;16.01;83.64;100122.73;106557;1251;99315;-86
2023/06/28 05:47:14;;;;;;;6.30;2.60;;;;;;;16.13;82.98;100116.99;106348;1255;97714;-87
2023/06/28 05:50:00;;;;;;;4.10;3.20;;;;;;;16.20;82.75;100120.44;106460;1251;96507;-86
2023/06/28 05:52:46;;;;;;;5.50;2.00;;;;;;;16.26;82.09;100121.09;106562;1256;97131;-86
2023/06/28 05:55:32;;;;;;;5.20;2.50;;;;;;;16.33;82.21;100120.35;106655;1251;99916;-87
2023/06/28 05:58:18;;;;;;;3.70;2.10;;;;;;;16.40;81.83;100124.08;106459;1256;99954;-85
2023/06/28 06:01:04;;;;;;;5.80;2.40;;;;;;;16.41;81.70;100120.94;106490;1251;97894;-86
2023/06/28 06:03:50;;;;;;;3.10;2.00;;;;;;;16.43;81.49;100117.20;106512;1254;97233;-85
2023/06/28 06:06:36;;;;;;;5.00;2.20;;;;;;;16.48;81.71;100116.54;106589;1259;96618;-86
2023/06/28 06:09:21;;;;;;;3.30;2.30;;;;;;;16.57;81.61;100114.23;106504;1251;99997;-86
2023/06/28 06:12:07;;;;;;;5.90;2.10;;;;;;;16.70;81.47;100113.98;106737;1251;99299;-87
2023/06/28 06:14:56;;;;;;;4.50;2.10;;;;;;;16.86;81.42;100111.45;106682;1251;97693;-86
2023/06/28 06:17:42;;;;;;;6.50;2.40;;;;;;;16.94;80.79;100112.31;106431;1251;96701;-87
2023/06/28 06:20:28;;;;;;;6.60;2.20;;;;;;;17.05;80.81;100115.83;106778;1256;97026;-87
2023/06/28 06:23:14;;;;;;;5.20;2.50;;;;;;;17.14;80.44;100113.20;106472;1256;101211;-84
2023/06/28 06:26:00;;;;;;;5.40;2.10;;;;;;;17.18;80.39;100113.27;106489;1253;100962;-84
2023/06/28 06:28:46;;;;;;;3.30;2.40;;;;;;;17.27;80.38;100108.41;106406;1251;97937;-84
2023/06/28 06:31:32;;;;;;;3.10;1.90;;;;;;;17.29;79.85;100110.23;106419;1258;96950;-87
2023/06/28 06:34:18;;;;;;;8.90;2.50;;;;;;;17.28;79.31;100107.41;106601;1254;96688;-86
2023/06/28 06:37:05;;;;;;;7.60;2.50;;;;;;;17.26;78.71;100100.17;106698;1251;100916;-86
2023/06/28 06:39:50;;;;;;;7.80;2.20;;;;;;;17.32;79.17;100099.85;106653;1256;99140;-86
2023/06/28 06:42:36;;;;;;;7.60;3.30;;;;;;;17.45;78.96;100098.80;106596;1258;98978;-86
2023/06/28 06:45:22;;;;;;;7.00;2.50;;;;;;;17.54;78.41;100097.02;106572;1258;96608;-86
2023/06/28 06:48:08;;;;;;;4.50;2.10;;;;;;;17.63;78.22;100098.81;106534;1259;96603;-86
2023/06/28 06:50:54;;;;;;;6.40;2.30;;;;;;;17.70;78.08;100101.71;106577;1257;99962;-86
2023/06/28 06:53:40;;;;;;;5.50;2.20;;;;;;;17.79;78.26;100097.74;106839;1251;99844;-86
2023/06/28 06:56:27;;;;;;;6.00;2.20;;;;;;;17.90;77.95;100095.31;106738;1256;97730;-87
2023/06/28 06:59:15;;;;;;;3.20;1.90;;;;;;;17.99;77.76;100094.27;106620;1254;97915;-83
2023/06/28 07:02:00;;;;;;;5.70;2.40;;;;;;;18.06;77.11;100102.03;106211;1257;97029;-87
2023/06/28 07:04:46;;;;;;;5.30;2.50;;;;;;;18.13;77.27;100104.09;106448;1251;100069;-86
2023/06/28 07:07:32;;;;;;;5.20;2.30;;;;;;;18.22;77.10;100099.52;106557;1251;100352;-86
2023/06/28 07:10:18;;;;;;;7.20;2.60;;;;;;;18.29;76.51;100099.17;106436;1255;97707;-85
2023/06/28 07:13:04;;;;;;;4.30;2.80;;;;;;;18.36;77.09;100099.88;106710;1256;96670;-87
2023/06/28 07:15:50;;;;;;;5.60;2.10;;;;;;;18.42;76.80;100098.34;106558;1251;97038;-85
2023/06/28 07:18:35;;;;;;;4.80;2.70;;;;;;;18.47;76.63;100093.29;106460;1257;99892;-85
2023/06/28 07:21:21;;;;;;;9.30;4.30;;;;;;;18.58;76.44;100095.44;106458;1251;99141;-85
2023/06/28 07:24:10;;;;;;;4.90;3.10;;;;;;;18.61;75.81;100100.36;106646;1251;97750;-87
2023/06/28 07:26:55;;;;;;;7.40;3.40;;;;;;;18.58;75.24;100100.27;106450;1251;96541;-85
2023/06/28 07:29:42;;;;;;;3.80;2.10;;;;;;;18.63;75.05;100103.75;106503;1257;96629;-87
2023/06/28 07:32:27;;;;;;;6.10;2.50;;;;;;;18.71;73.83;100104.46;106369;1251;100678;-86
2023/06/28 07:35:13;;;;;;;4.90;1.90;;;;;;;18.77;73.59;100106.11;106672;1250;99132;-86
2023/06/28 07:37:59;;;;;;;5.90;2.80;;;;;;;18.89;73.83;100108.27;106694;1251;97743;-87
2023/06/28 07:40:45;;;;;;;4.10;2.10;;;;;;;18.98;73.73;100109.26;106617;1257;96717;-86
2023/06/28 07:43:31;;;;;;;3.90;2.20;;;;;;;19.09;74.17;100107.80;106810;1257;96498;-88
2023/06/28 07:46:17;;;;;;;4.90;1.90;;;;;;;19.23;73.69;100104.16;106955;1251;99951;-88
2023/06/28 07:49:03;;;;;;;6.00;2.30;;;;;;;19.37;73.35;100102.01;106751;1256;100454;-87
2023/06/28 07:51:49;;;;;;;4.70;1.80;;;;;;;19.37;71.85;100102.88;106731;1251;97679;-85
2023/06/28 07:54:35;;;;;;;7.00;2.20;;;;;;;19.26;70.22;100106.59;106498;1251;96521;-86
2023/06/28 07:57:21;;;;;;;3.70;1.90;;;;;;;19.14;69.98;100105.53;107043;1251;96507;-88
2023/06/28 08:00:09;;;;;;;8.70;2.00;;;;;;;19.06;69.86;100105.66;106895;1251;101406;-88
2023/06/28 08:02:55;;;;;;;7.70;1.80;;;;;;;19.05;69.91;100104.98;106890;1251;99166;-87
2023/06/28 08:05:41;;;;;;;10.10;2.10;;;;;;;19.09;69.45;100102.93;106868;1251;97625;-87
2023/06/28 08:08:28;;;;;;;7.40;1.80;;;;;;;19.20;69.74;100101.20;106705;1259;96607;-88
2023/06/28 08:11:13;;;;;;;3.80;1.30;;;;;;;19.24;67.91;100099.95;106385;1251;96615;-87
2023/06/28 08:13:59;;;;;;;3.50;1.80;;;;;;;19.21;67.65;100101.21;106510;1256;99988;-86
2023/06/28 08:16:45;;;;;;;6.00;1.70;;;;;;;19.31;68.03;100090.35;106475;1251;107848;-86
2023/06/28 08:19:32;;;;;;;7.20;1.60;;;;;;;19.43;68.62;100090.33;106383;1257;98417;-86
2023/06/28 08:22:18;;;;;;;6.60;1.40;;;;;;;19.54;67.75;100086.21;106411;1258;96599;-86
2023/06/28 08:25:04;;;;;;;6.80;1.60;;;;;;;19.69;67.55;100082.82;106635;1251;96624;-86
2023/06/28 08:27:49;;;;;;;3.30;1.50;;;;;;;19.77;65.95;100084.40;106577;1251;99952;-87
2023/06/28 08:30:35;;;;;;;7.60;1.80;;;;;;;19.79;64.87;100081.43;106503;1251;99163;-87
2023/06/28 08:33:24;;;;;;;5.20;1.20;;;;;;;19.87;65.22;100081.66;106414;1251;97779;-84
2023/06/28 08:36:10;;;;;;;4.00;1.40;;;;;;;19.87;64.41;100085.26;106441;1257;96675;-85
2023/06/28 08:38:56;;;;;;;5.30;1.30;;;;;;;19.88;64.51;100079.60;106535;1251;96666;-85
2023/06/28 08:41:43;;;;;;;3.10;1.40;;;;;;;19.98;64.87;100080.98;106533;1251;101288;-86
2023/06/28 08:44:32;;;;;;;5.00;1.60;;;;;;;20.16;64.88;100082.83;106515;1251;99591;-86
2023/06/28 08:47:18;;;;;;;4.50;1.50;;;;;;;20.33;64.48;100083.05;106352;1251;99118;-86
2023/06/28 08:50:05;;;;;;;4.20;1.30;;;;;;;20.48;63.93;100080.59;106684;1251;97897;-86
2023/06/28 08:52:51;;;;;;;6.00;1.70;;;;;;;20.60;63.28;100076.09;106876;1256;96705;-87
2023/06/28 08:55:37;;;;;;;5.60;1.60;;;;;;;20.68;62.56;100076.45;106689;1251;101055;-87
2023/06/28 08:58:23;;;;;;;5.30;1.60;;;;;;;20.68;61.73;100071.49;106541;1250;99091;-86
2023/06/28 09:01:09;;;;;;;5.60;1.90;;;;;;;20.71;61.84;100070.58;106430;1257;97721;-86
2023/06/28 09:03:56;;;;;;;4.60;1.00;;;;;;;20.67;60.42;100071.48;106621;1259;96604;-86
2023/06/28 09:06:41;;;;;;;7.00;1.60;;;;;;;20.61;60.97;100074.17;106583;1259;96958;-86
2023/06/28 09:09:29;;;;;;;7.70;1.60;;;;;;;20.70;62.00;100074.55;107054;1257;99972;-85
2023/06/28 09:12:16;;;;;;;6.40;1.60;;;;;;;20.80;61.40;100075.47;107309;1251;99091;-86
2023/06/28 09:15:03;;;;;;;4.90;1.70;;;;;;;20.76;60.37;100079.80;106877;1251;98999;-86
2023/06/28 09:17:48;;;;;;;9.90;1.70;;;;;;;20.63;59.71;100078.23;107139;1251;96533;-87
2023/06/28 09:20:35;;;;;;;2.50;1.00;;;;;;;20.54;59.62;100079.16;107173;1251;97615;-86
2023/06/28 09:23:27;;;;;;;5.20;1.90;;;;;;;20.54;60.24;100070.83;107224;1251;99942;-85
2023/06/28 09:26:13;;;;;;;4.50;1.60;;;;;;;20.61;60.48;100066.98;106689;1251;99180;-87
2023/06/28 09:29:09;;;;;;;7.10;2.20;;;;;;;20.71;59.67;100068.08;106631;1257;97755;-86
2023/06/28 09:31:55;;;;;;;7.40;1.80;;;;;;;20.71;59.64;100067.86;106441;1254;96583;-85
2023/06/28 09:34:41;;;;;;;5.20;1.70;;;;;;;20.59;59.11;100071.73;106629;1254;97011;-86
2023/06/28 09:37:30;;;;;;;5.40;1.80;;;;;;;20.40;58.90;100071.79;106766;1254;100089;-87
2023/06/28 09:40:17;;;;;;;2.60;1.30;;;;;;;20.27;59.28;100065.29;106772;1253;99157;-88
2023/06/28 09:43:03;;;;;;;3.40;1.40;;;;;;;20.28;60.05;100063.23;106787;1253;97726;-87
2023/06/28 09:45:50;;;;;;;3.90;1.10;;;;;;;20.32;59.92;100060.69;106665;1254;97894;-87
2023/06/28 09:48:36;;;;;;;5.70;1.50;;;;;;;20.29;58.75;100062.41;106835;1259;97596;-86
2023/06/28 09:51:23;;;;;;;3.70;1.10;;;;;;;20.17;58.29;100062.75;106678;1260;100061;-87
2023/06/28 09:54:09;;;;;;;4.90;1.10;;;;;;;20.08;58.27;100064.58;106768;1253;99837;-88
2023/06/28 09:56:56;;;;;;;6.70;1.20;;;;;;;20.04;58.99;100064.02;106657;1253;97879;-86
2023/06/28 09:59:44;;;;;;;6.60;1.20;;;;;;;20.03;59.76;100063.52;106500;1261;96728;-85
2023/06/28 10:02:31;;;;;;;3.80;1.30;;;;;;;20.02;59.86;100065.04;106508;1254;97061;-86
2023/06/28 10:05:17;;;;;;;6.40;1.80;;;;;;;19.98;60.28;100065.82;106533;1254;100163;-86
2023/06/28 10:08:07;;;;;;;4.80;1.60;;;;;;;20.02;60.84;100068.95;106395;1256;99108;-86
2023/06/28 10:10:56;;;;;;;5.00;1.70;;;;;;;20.07;60.67;100071.21;106471;1262;97826;-85
2023/06/28 10:13:46;;;;;;;6.70;1.70;;;;;;;20.12;60.83;100070.42;106410;1259;96591;-86
2023/06/28 10:16:35;;;;;;;4.60;1.50;;;;;;;20.27;61.09;100070.34;106707;1254;97897;-86
2023/06/28 10:19:21;;;;;;;2.50;1.20;;;;;;;20.54;61.59;100065.33;106670;1256;100681;-86
2023/06/28 10:22:07;;;;;;;6.30;1.70;;;;;;;20.71;61.30;100066.72;106694;1254;99103;-86
2023/06/28 10:24:54;;;;;;;7.80;1.90;;;;;;;20.71;60.45;100070.96;106522;1254;98331;-86
2023/06/28 10:27:41;;;;;;;8.20;2.30;;;;;;;20.56;59.35;100076.60;106320;1259;97330;-85
2023/06/28 10:30:28;;;;;;;5.20;2.10;;;;;;;20.37;59.14;100084.17;106329;1260;96673;-84
2023/06/28 10:33:17;;;;;;;8.30;1.70;;;;;;;20.27;58.92;100085.58;106362;1254;99998;-85
2023/06/28 10:36:07;;;;;;;4.10;1.40;;;;;;;20.17;59.00;100082.06;106384;1252;99626;-84
2023/06/28 10:38:53;;;;;;;5.10;1.90;;;;;;;20.09;59.41;100083.20;106172;1252;97714;-85
2023/06/28 10:41:39;;;;;;;5.00;1.60;;;;;;;20.08;59.78;100076.11;106205;1254;96511;-85
2023/06/28 10:44:25;;;;;;;3.50;1.30;;;;;;;20.17;60.11;100079.56;106404;1253;97310;-85
2023/06/28 10:47:12;;;;;;;4.70;1.50;;;;;;;20.27;59.58;100076.27;106243;1253;99806;-85
2023/06/28 10:50:10;;;;;;;6.00;1.40;;;;;;;20.32;60.03;100075.60;106471;1254;99895;-85
2023/06/28 10:52:58;;;;;;;8.20;1.90;;;;;;;20.44;60.45;100066.54;106359;1254;99910;-83
2023/06/28 10:56:12;;;;;;;8.00;2.00;;;;;;;20.53;60.13;100060.98;106094;1259;96798;-84
2023/06/28 10:59:07;;;;;;;7.60;1.80;;;;;;;20.60;60.41;100058.55;106198;1256;199287;-85
2023/06/28 11:01:55;;;;;;;4.50;2.10;;;;;;;20.78;60.62;100055.04;106254;1254;100652;-86
2023/06/28 11:04:51;;;;;;;5.10;1.70;;;;;;;20.86;59.96;100055.66;106390;1260;99153;-86
2023/06/28 11:07:41;;;;;;;6.20;1.50;;;;;;;20.82;59.08;100059.25;106374;1254;106526;-87
2023/06/28 11:10:41;;;;;;;4.80;1.60;;;;;;;20.77;59.32;100064.95;106327;1257;96600;-86
2023/06/28 11:13:32;;;;;;;4.80;1.70;;;;;;;20.75;59.02;100070.00;106358;1254;97071;-86
2023/06/28 11:16:21;;;;;;;7.20;1.80;;;;;;;20.71;58.86;100071.27;106358;1256;99955;-85
2023/06/28 11:19:14;;;;;;;6.00;1.50;;;;;;;20.66;57.99;100070.94;106494;1259;99068;-84
2023/06/28 11:22:09;;;;;;;7.80;2.20;;;;;;;20.60;58.10;100068.29;106356;1254;97753;-86
2023/06/28 11:24:55;;;;;;;7.60;1.80;;;;;;;20.56;57.71;100075.48;106431;1259;96299;-86
2023/06/28 11:27:41;;;;;;;6.50;1.60;;;;;;;20.49;57.89;100078.74;106534;1257;96618;-86
2023/06/28 11:30:47;;;;;;;5.80;1.40;;;;;;;20.47;57.98;100079.11;106237;1256;99929;-85
2023/06/28 11:33:33;;;;;;;3.10;1.80;;;;;;;20.41;58.09;100082.73;106394;1258;99123;-86
2023/06/28 11:36:24;;;;;;;7.10;1.30;;;;;;;20.38;58.31;100088.73;106341;1254;98962;-86
2023/06/28 11:39:17;;;;;;;6.10;1.50;;;;;;;20.34;58.20;100094.10;106760;1257;96620;-86
2023/06/28 11:42:04;;;;;;;4.20;1.70;;;;;;;20.31;58.67;100104.00;106650;1253;95847;-85
2023/06/28 11:44:51;;;;;;;8.80;2.30;;;;;;;20.21;58.72;100105.22;106315;1252;101246;-84
2023/06/28 11:47:36;;;;;;;5.10;1.80;;;;;;;20.05;59.52;100109.76;106363;1257;100336;-86
2023/06/28 11:50:22;;;;;;;8.80;1.60;;;;;;;19.95;59.99;100117.29;106504;1253;98251;-85
2023/06/28 11:53:09;;;;;;;6.90;1.40;;;;;;;19.87;60.44;100119.77;106365;1257;96696;-84
2023/06/28 11:55:55;;;;;;;9.10;2.60;;;;;;;19.79;60.95;100123.34;106280;1257;96616;-84
2023/06/28 11:58:41;;;;;;;5.40;2.50;;;;;;;19.69;61.24;100127.88;106351;1261;101304;-85
2023/06/28 12:01:27;;;;;;;6.60;2.00;;;;;;;19.59;61.11;100131.14;106392;1259;100110;-85
2023/06/28 12:04:20;;;;;;;5.90;1.60;;;;;;;19.51;61.16;100127.70;106641;1260;97971;-81
2023/06/28 12:07:06;;;;;;;8.80;1.80;;;;;;;19.49;61.44;100127.13;106993;1258;96450;-82
2023/06/28 12:09:56;;;;;;;3.40;1.40;;;;;;;19.48;61.55;100127.17;106890;1254;96990;-82
2023/06/28 12:12:42;;;;;;;4.70;1.30;;;;;;;19.47;61.83;100128.90;106715;1254;99985;-81
2023/06/28 12:15:27;;;;;;;5.50;1.60;;;;;;;19.49;62.20;100133.16;106855;1253;99318;-82
2023/06/28 12:18:14;;;;;;;8.80;1.60;;;;;;;19.55;62.48;100135.94;106897;1259;97821;-82
2023/06/28 12:21:22;;;;;;;5.80;1.60;;;;;;;19.53;62.74;100134.52;106700;1272;96620;-80
2023/06/28 12:24:21;;;;;;;8.00;1.80;;;;;;;19.49;63.37;100141.42;106667;1259;95882;-79
2023/06/28 12:27:08;;;;;;;4.60;1.40;;;;;;;19.53;64.33;100139.13;106540;1257;100071;-80
2023/06/28 12:29:53;;;;;;;4.60;1.60;;;;;;;19.60;64.80;100141.33;106598;1256;99758;-80
2023/06/28 12:32:45;;;;;;;4.80;1.50;;;;;;;19.70;65.15;100138.65;106700;1256;97708;-80
2023/06/28 12:35:31;;;;;;;3.10;1.30;;;;;;;19.78;64.94;100140.47;108783;1253;94143;-80
2023/06/28 12:38:19;;;;;;;5.40;1.80;;;;;;;19.82;64.72;100139.46;108683;1257;94313;-81
2023/06/28 12:41:05;;;;;;;8.30;1.50;;;;;;;19.87;64.96;100138.91;108744;1254;100627;-80
2023/06/28 12:43:56;;;;;;;5.40;1.40;;;;;;;19.93;64.99;100141.35;108141;1254;99106;-80
2023/06/28 12:46:41;;;;;;;4.40;1.40;;;;;;;19.94;64.39;100140.98;107154;1254;98709;-80